createdAt,value
2023-03-10T16:30:32.646Z,99221.99
2023-03-10T16:33:05.166Z,99230.50
2023-03-10T16:35:39.206Z,99233.42
2023-03-10T16:38:11.581Z,99244.67
2023-03-10T16:40:50.257Z,99249.59
2023-03-10T16:43:23.372Z,99244.77
2023-03-10T16:46:05.206Z,99243.88
2023-03-10T16:48:42.128Z,99242.27
2023-03-10T16:51:27.733Z,99253.90
2023-03-10T16:54:02.267Z,99256.70
2023-03-10T16:56:37.923Z,99253.56
2023-03-10T16:59:13.304Z,99252.32
2023-03-10T17:01:45.762Z,99255.56
2023-03-10T17:04:18.611Z,99269.43
2023-03-10T17:06:51.172Z,99286.20
2023-03-10T17:09:23.680Z,99287.57
2023-03-10T17:11:57.407Z,99288.71
2023-03-10T17:14:30.780Z,99314.23
2023-03-10T17:17:04.298Z,99320.74
2023-03-10T17:19:37.724Z,99312.33
2023-03-10T17:22:10.064Z,99314.50
2023-03-10T17:24:43.417Z,99312.41
2023-03-10T17:27:16.477Z,99307.31
2023-03-10T17:29:49.760Z,99302.21
2023-03-10T17:32:22.452Z,99288.86
2023-03-10T17:34:55.221Z,99282.77
2023-03-10T17:37:28.034Z,99284.86
2023-03-10T17:40:00.922Z,99284.77
2023-03-10T17:42:33.816Z,99272.33
2023-03-10T17:45:07.527Z,99274.23
2023-03-10T17:47:41.249Z,99266.24
2023-03-10T17:50:14.728Z,99266.98
2023-03-10T17:52:50.274Z,99256.05
2023-03-10T17:55:23.262Z,99253.90
2023-03-10T17:57:55.897Z,99251.68
2023-03-10T18:00:34.414Z,99245.59
2023-03-10T18:03:22.297Z,99236.28
2023-03-10T18:05:56.072Z,99224.18
2023-03-10T18:08:31.295Z,99221.85
2023-03-10T18:11:05.943Z,99219.96
2023-03-10T18:13:39.106Z,99217.50
2023-03-10T18:16:18.886Z,99212.76
2023-03-10T18:18:52.281Z,99204.98
2023-03-10T18:21:25.938Z,99196.41
2023-03-10T18:24:04.045Z,99189.61
2023-03-10T18:26:38.234Z,99187.83
2023-03-10T18:29:10.941Z,99181.61
2023-03-10T18:31:43.816Z,99178.88
2023-03-10T18:34:23.794Z,99175.81
2023-03-10T18:36:56.390Z,99164.80
2023-03-10T18:39:29.229Z,99158.61
2023-03-10T18:42:02.368Z,99156.55
2023-03-10T18:44:35.144Z,99157.69
2023-03-10T18:47:08.052Z,99155.10
2023-03-10T18:49:41.219Z,99150.80
2023-03-10T18:52:16.672Z,99146.12
2023-03-10T18:54:52.468Z,99143.38
2023-03-10T18:57:26.139Z,99136.83
2023-03-10T19:00:00.845Z,99131.54
2023-03-10T19:02:35.625Z,99126.20
2023-03-10T19:05:11.336Z,99122.31
2023-03-10T19:07:44.008Z,99119.23
2023-03-10T19:10:18.603Z,99113.91
2023-03-10T19:12:51.309Z,99106.39
2023-03-10T19:15:31.929Z,99105.67
2023-03-10T19:18:04.775Z,99101.52
2023-03-10T19:20:37.461Z,99097.61
2023-03-10T19:23:10.230Z,99096.52
2023-03-10T19:25:43.047Z,99095.69
2023-03-10T19:28:15.788Z,99097.00
2023-03-10T19:30:48.484Z,99094.02
2023-03-10T19:33:21.644Z,99093.62
2023-03-10T19:36:03.251Z,99091.49
2023-03-10T19:38:37.613Z,99086.72
2023-03-10T19:41:14.616Z,99085.53
2023-03-10T19:43:49.108Z,99081.67
2023-03-10T19:46:22.438Z,99077.58
2023-03-10T19:48:55.491Z,99076.52
2023-03-10T19:51:30.421Z,99073.27
2023-03-10T19:54:04.413Z,99069.68
2023-03-10T19:56:37.324Z,99066.45
2023-03-10T19:59:10.148Z,99065.11
2023-03-10T20:01:44.188Z,99067.45
2023-03-10T20:04:17.261Z,99062.39
2023-03-10T20:06:50.015Z,99061.75
2023-03-10T20:09:23.028Z,99049.98
2023-03-10T20:11:57.129Z,99054.19
2023-03-10T20:14:29.737Z,99056.10
2023-03-10T20:17:02.358Z,99053.63
2023-03-10T20:19:35.237Z,99057.58
2023-03-10T20:22:07.913Z,99055.66
2023-03-10T20:24:40.587Z,99051.30
2023-03-10T20:27:13.642Z,99053.83
2023-03-10T20:29:46.338Z,99044.92
2023-03-10T20:32:19.281Z,99035.36
2023-03-10T20:34:52.148Z,99029.77
2023-03-10T20:37:24.780Z,99031.98
2023-03-10T20:39:57.509Z,99024.42
2023-03-10T20:42:30.629Z,99026.84
2023-03-10T20:45:03.731Z,99028.59
2023-03-10T20:47:36.695Z,99027.15
2023-03-10T20:50:12.586Z,99023.80
2023-03-10T20:52:46.665Z,99020.61
2023-03-10T20:55:23.243Z,99017.98
2023-03-10T20:57:58.219Z,99012.27
2023-03-10T21:00:31.844Z,99010.25
2023-03-10T21:03:04.607Z,99006.95
2023-03-10T21:05:37.224Z,99008.82
2023-03-10T21:08:10.534Z,99008.03
2023-03-10T21:10:44.755Z,99009.34
2023-03-10T21:13:17.733Z,99008.75
2023-03-10T21:15:50.496Z,99003.16
2023-03-10T21:18:23.283Z,99002.05
2023-03-10T21:20:56.117Z,99003.92
2023-03-10T21:23:28.878Z,99005.33
2023-03-10T21:26:01.427Z,99003.59
2023-03-10T21:28:34.051Z,98999.65
2023-03-10T21:31:07.203Z,98993.91
2023-03-10T21:33:41.889Z,98992.38
2023-03-10T21:36:17.895Z,98990.87
2023-03-10T21:38:51.938Z,98985.05
2023-03-10T21:41:26.622Z,98982.56
2023-03-10T21:44:00.529Z,98984.98
2023-03-10T21:46:33.219Z,98978.60
2023-03-10T21:49:06.306Z,98973.34
2023-03-10T21:51:39.282Z,98972.77
2023-03-10T21:54:12.942Z,98967.22
2023-03-10T21:56:45.783Z,98960.96
2023-03-10T21:59:18.475Z,98951.82
2023-03-10T22:01:51.504Z,98945.49
2023-03-10T22:04:24.174Z,98946.15
2023-03-10T22:06:56.934Z,98949.39
2023-03-10T22:09:31.423Z,98953.81
2023-03-10T22:12:12.997Z,98956.11
2023-03-10T22:14:45.848Z,98946.88
2023-03-10T22:17:19.108Z,98940.02
2023-03-10T22:19:54.929Z,98939.15
2023-03-10T22:22:27.724Z,98939.27
2023-03-10T22:25:00.535Z,98938.71
2023-03-10T22:27:33.247Z,98936.42
2023-03-10T22:30:08.188Z,98929.35
2023-03-10T22:32:41.028Z,98924.54
2023-03-10T22:35:13.965Z,98927.73
2023-03-10T22:37:46.904Z,98917.77
2023-03-10T22:40:22.226Z,98914.37
2023-03-10T22:42:55.676Z,98909.35
2023-03-10T22:45:30.804Z,98898.57
2023-03-10T22:48:06.292Z,98897.04
2023-03-10T22:50:40.576Z,98898.16
2023-03-10T22:53:16.873Z,98896.87
2023-03-10T22:55:50.810Z,98900.28
2023-03-10T22:58:23.631Z,98893.45
2023-03-10T23:00:56.591Z,98886.80
2023-03-10T23:03:29.345Z,98890.67
2023-03-10T23:06:04.019Z,98892.98
2023-03-10T23:08:39.452Z,98893.48
2023-03-10T23:11:15.699Z,98893.04
2023-03-10T23:13:48.349Z,98892.41
2023-03-10T23:16:21.020Z,98894.19
2023-03-10T23:18:53.914Z,98895.94
2023-03-10T23:21:26.630Z,98892.96
2023-03-10T23:23:59.373Z,98889.31
2023-03-10T23:26:35.454Z,98886.35
2023-03-10T23:29:08.195Z,98883.95
2023-03-10T23:31:41.036Z,98889.18
2023-03-10T23:34:13.877Z,98889.55
2023-03-10T23:36:46.596Z,98886.90
2023-03-10T23:39:19.215Z,98889.20
2023-03-10T23:41:52.071Z,98889.86
2023-03-10T23:44:24.755Z,98890.02
2023-03-10T23:46:57.372Z,98885.61
2023-03-10T23:49:30.433Z,98883.69
2023-03-10T23:52:03.298Z,98881.98
2023-03-10T23:54:35.970Z,98880.16
2023-03-10T23:57:08.706Z,98879.25
2023-03-10T23:59:41.760Z,98874.51
